sensor_id;sensor_type;location;lat;lon;timestamp;pressure;altitude;pressure_sealevel;temperature;humidity
37610;BME280;23457;51.966;8.230;2022-10-03T00:01:11;101686.75;;;11.78;100.00
37610;BME280;23457;51.966;8.230;2022-10-03T00:06:30;101691.97;;;11.78;100.00
37610;BME280;23457;51.966;8.230;2022-10-03T00:12:03;101681.50;;;11.75;100.00
37610;BME280;23457;51.966;8.230;2022-10-03T00:22:44;101696.06;;;11.70;100.00
37610;BME280;23457;51.966;8.230;2022-10-03T00:28:20;101702.03;;;11.66;100.00
37610;BME280;23457;51.966;8.230;2022-10-03T00:31:15;101703.59;;;11.60;100.00
37610;BME280;23457;51.966;8.230;2022-10-03T00:50:04;101707.78;;;11.55;100.00
37610;BME280;23457;51.966;8.230;2022-10-03T01:01:21;101721.34;;;11.43;100.00
37610;BME280;23457;51.966;8.230;2022-10-03T01:04:08;101716.44;;;11.54;100.00
37610;BME280;23457;51.966;8.230;2022-10-03T01:06:48;101722.38;;;11.48;100.00
37610;BME280;23457;51.966;8.230;2022-10-03T01:09:36;101729.59;;;11.58;100.00
37610;BME280;23457;51.966;8.230;2022-10-03T01:12:31;101727.88;;;11.59;100.00
37610;BME280;23457;51.966;8.230;2022-10-03T01:20:12;101735.53;;;11.54;100.00
37610;BME280;23457;51.966;8.230;2022-10-03T01:25:52;101743.00;;;11.42;100.00
37610;BME280;23457;51.966;8.230;2022-10-03T01:31:42;101753.25;;;11.36;100.00
37610;BME280;23457;51.966;8.230;2022-10-03T01:34:22;101742.84;;;11.36;100.00
37610;BME280;23457;51.966;8.230;2022-10-03T01:37:12;101742.66;;;11.30;100.00
37610;BME280;23457;51.966;8.230;2022-10-03T01:39:51;101751.38;;;11.32;100.00
37610;BME280;23457;51.966;8.230;2022-10-03T01:42:38;101764.34;;;11.30;100.00
37610;BME280;23457;51.966;8.230;2022-10-03T01:48:07;101763.34;;;11.25;100.00
37610;BME280;23457;51.966;8.230;2022-10-03T01:51:39;101769.13;;;11.17;100.00
37610;BME280;23457;51.966;8.230;2022-10-03T01:53:55;101772.47;;;11.11;100.00
37610;BME280;23457;51.966;8.230;2022-10-03T01:56:32;101770.81;;;11.14;100.00
37610;BME280;23457;51.966;8.230;2022-10-03T02:04:44;101771.56;;;11.10;100.00
37610;BME280;23457;51.966;8.230;2022-10-03T02:07:22;101784.25;;;11.00;100.00
37610;BME280;23457;51.966;8.230;2022-10-03T02:12:45;101776.91;;;10.87;100.00
37610;BME280;23457;51.966;8.230;2022-10-03T02:15:24;101779.06;;;10.73;100.00
37610;BME280;23457;51.966;8.230;2022-10-03T02:17:57;101794.00;;;10.80;100.00
37610;BME280;23457;51.966;8.230;2022-10-03T02:20:44;101791.47;;;10.82;100.00
37610;BME280;23457;51.966;8.230;2022-10-03T02:23:39;101791.72;;;10.62;100.00
37610;BME280;23457;51.966;8.230;2022-10-03T02:35:44;101799.25;;;10.55;100.00
37610;BME280;23457;51.966;8.230;2022-10-03T02:48:18;101808.66;;;10.51;100.00
37610;BME280;23457;51.966;8.230;2022-10-03T02:50:46;101812.59;;;10.40;100.00
37610;BME280;23457;51.966;8.230;2022-10-03T02:56:45;101818.59;;;10.37;100.00
37610;BME280;23457;51.966;8.230;2022-10-03T03:10:27;101815.47;;;10.22;100.00
37610;BME280;23457;51.966;8.230;2022-10-03T03:18:46;101832.72;;;10.20;100.00
37610;BME280;23457;51.966;8.230;2022-10-03T03:21:39;101831.69;;;10.17;100.00
37610;BME280;23457;51.966;8.230;2022-10-03T03:30:16;101829.66;;;10.08;100.00
37610;BME280;23457;51.966;8.230;2022-10-03T03:38:31;101831.00;;;9.97;100.00
37610;BME280;23457;51.966;8.230;2022-10-03T03:41:28;101839.31;;;9.88;100.00
37610;BME280;23457;51.966;8.230;2022-10-03T03:44:13;101840.94;;;9.85;100.00
37610;BME280;23457;51.966;8.230;2022-10-03T03:50:15;101844.22;;;9.81;100.00
37610;BME280;23457;51.966;8.230;2022-10-03T03:58:04;101847.50;;;9.75;100.00
37610;BME280;23457;51.966;8.230;2022-10-03T04:06:20;101846.63;;;9.75;100.00
37610;BME280;23457;51.966;8.230;2022-10-03T04:09:23;101841.63;;;9.81;100.00
37610;BME280;23457;51.966;8.230;2022-10-03T04:12:03;101848.41;;;9.77;100.00
37610;BME280;23457;51.966;8.230;2022-10-03T04:14:59;101846.44;;;9.70;100.00
37610;BME280;23457;51.966;8.230;2022-10-03T04:20:55;101849.03;;;9.70;100.00
37610;BME280;23457;51.966;8.230;2022-10-03T04:26:44;101844.41;;;9.61;100.00
37610;BME280;23457;51.966;8.230;2022-10-03T04:40:47;101848.75;;;9.40;99.71
37610;BME280;23457;51.966;8.230;2022-10-03T04:43:38;101855.22;;;9.51;99.58
37610;BME280;23457;51.966;8.230;2022-10-03T04:46:26;101859.72;;;9.33;100.00
37610;BME280;23457;51.966;8.230;2022-10-03T04:51:43;101866.13;;;9.20;100.00
37610;BME280;23457;51.966;8.230;2022-10-03T04:57:45;101864.06;;;9.12;100.00
37610;BME280;23457;51.966;8.230;2022-10-03T05:00:23;101867.69;;;8.94;100.00
37610;BME280;23457;51.966;8.230;2022-10-03T05:03:11;101870.91;;;9.10;100.00
37610;BME280;23457;51.966;8.230;2022-10-03T05:06:21;101869.75;;;9.24;100.00
37610;BME280;23457;51.966;8.230;2022-10-03T05:09:04;101867.31;;;9.28;100.00
37610;BME280;23457;51.966;8.230;2022-10-03T05:11:48;101883.06;;;9.33;100.00
37610;BME280;23457;51.966;8.230;2022-10-03T05:17:23;101885.38;;;9.48;100.00
37610;BME280;23457;51.966;8.230;2022-10-03T05:23:40;101891.63;;;9.53;100.00
37610;BME280;23457;51.966;8.230;2022-10-03T05:26:19;101891.75;;;9.56;100.00
37610;BME280;23457;51.966;8.230;2022-10-03T05:29:40;101889.41;;;9.62;100.00
37610;BME280;23457;51.966;8.230;2022-10-03T05:32:22;101902.53;;;9.66;100.00
37610;BME280;23457;51.966;8.230;2022-10-03T05:40:15;101891.44;;;9.70;100.00
37610;BME280;23457;51.966;8.230;2022-10-03T05:56:32;101904.03;;;10.06;100.00
37610;BME280;23457;51.966;8.230;2022-10-03T06:07:28;101923.38;;;10.14;100.00
37610;BME280;23457;51.966;8.230;2022-10-03T06:12:52;101917.97;;;10.08;100.00
37610;BME280;23457;51.966;8.230;2022-10-03T06:15:46;101920.00;;;10.17;100.00
37610;BME280;23457;51.966;8.230;2022-10-03T06:18:23;101922.94;;;10.24;100.00
37610;BME280;23457;51.966;8.230;2022-10-03T06:21:20;101925.81;;;10.32;100.00
37610;BME280;23457;51.966;8.230;2022-10-03T06:24:18;101927.91;;;10.42;100.00
37610;BME280;23457;51.966;8.230;2022-10-03T06:48:13;101950.88;;;10.79;100.00
37610;BME280;23457;51.966;8.230;2022-10-03T07:25:52;101958.06;;;11.11;100.00
37610;BME280;23457;51.966;8.230;2022-10-03T07:28:49;101959.19;;;11.20;100.00
37610;BME280;23457;51.966;8.230;2022-10-03T07:37:12;101972.66;;;11.33;100.00
37610;BME280;23457;51.966;8.230;2022-10-03T07:51:39;101991.81;;;11.35;100.00
37610;BME280;23457;51.966;8.230;2022-10-03T07:54:23;102000.63;;;11.39;100.00
37610;BME280;23457;51.966;8.230;2022-10-03T08:05:28;101995.03;;;11.27;100.00
37610;BME280;23457;51.966;8.230;2022-10-03T08:11:09;102000.75;;;11.70;100.00
37610;BME280;23457;51.966;8.230;2022-10-03T08:14:37;102013.28;;;11.80;100.00
37610;BME280;23457;51.966;8.230;2022-10-03T08:45:37;102024.84;;;12.47;100.00
37610;BME280;23457;51.966;8.230;2022-10-03T09:07:59;102032.75;;;13.11;100.00
37610;BME280;23457;51.966;8.230;2022-10-03T09:27:49;102013.47;;;13.75;100.00
37610;BME280;23457;51.966;8.230;2022-10-03T09:36:06;102013.38;;;14.47;100.00
37610;BME280;23457;51.966;8.230;2022-10-03T09:38:57;102013.84;;;14.72;100.00
37610;BME280;23457;51.966;8.230;2022-10-03T10:21:22;101993.50;;;15.53;94.90
37610;BME280;23457;51.966;8.230;2022-10-03T10:33:10;101977.69;;;15.49;90.96
37610;BME280;23457;51.966;8.230;2022-10-03T11:26:43;101970.41;;;16.52;86.41
37610;BME280;23457;51.966;8.230;2022-10-03T11:35:19;101973.66;;;17.11;82.58
37610;BME280;23457;51.966;8.230;2022-10-03T11:38:10;101956.25;;;17.19;82.66
37610;BME280;23457;51.966;8.230;2022-10-03T11:46:27;101959.84;;;17.30;79.40
37610;BME280;23457;51.966;8.230;2022-10-03T11:54:48;101952.97;;;17.47;76.32
37610;BME280;23457;51.966;8.230;2022-10-03T11:57:33;101954.75;;;17.51;74.46
37610;BME280;23457;51.966;8.230;2022-10-03T12:03:05;101952.06;;;17.42;75.52
37610;BME280;23457;51.966;8.230;2022-10-03T12:05:56;101951.22;;;17.46;73.69
37610;BME280;23457;51.966;8.230;2022-10-03T12:09:16;101941.59;;;17.50;74.92
37610;BME280;23457;51.966;8.230;2022-10-03T12:11:54;101947.00;;;17.65;73.21
37610;BME280;23457;51.966;8.230;2022-10-03T12:19:49;101941.63;;;17.53;73.32
37610;BME280;23457;51.966;8.230;2022-10-03T12:22:36;101944.50;;;17.89;75.09
37610;BME280;23457;51.966;8.230;2022-10-03T12:25:23;101950.69;;;18.02;71.69
37610;BME280;23457;51.966;8.230;2022-10-03T12:30:27;101941.00;;;17.89;69.22
37610;BME280;23457;51.966;8.230;2022-10-03T12:33:10;101941.97;;;18.06;67.36
37610;BME280;23457;51.966;8.230;2022-10-03T12:41:21;101928.16;;;18.67;72.11
37610;BME280;23457;51.966;8.230;2022-10-03T12:44:23;101922.91;;;18.83;69.69
37610;BME280;23457;51.966;8.230;2022-10-03T12:52:26;101912.38;;;19.27;70.51
37610;BME280;23457;51.966;8.230;2022-10-03T13:08:02;101928.13;;;18.62;65.19
37610;BME280;23457;51.966;8.230;2022-10-03T13:10:38;101931.66;;;18.66;68.17
37610;BME280;23457;51.966;8.230;2022-10-03T13:15:58;101928.00;;;18.29;64.40
37610;BME280;23457;51.966;8.230;2022-10-03T13:27:29;101928.94;;;18.41;68.31
37610;BME280;23457;51.966;8.230;2022-10-03T13:32:41;101929.69;;;18.07;68.72
37610;BME280;23457;51.966;8.230;2022-10-03T13:35:21;101934.91;;;18.01;68.99
37610;BME280;23457;51.966;8.230;2022-10-03T13:40:38;101929.72;;;18.10;69.93
37610;BME280;23457;51.966;8.230;2022-10-03T13:43:12;101931.38;;;17.94;68.79
37610;BME280;23457;51.966;8.230;2022-10-03T13:45:43;101923.47;;;17.91;69.37
37610;BME280;23457;51.966;8.230;2022-10-03T13:48:19;101932.22;;;17.85;68.41
37610;BME280;23457;51.966;8.230;2022-10-03T13:56:39;101933.13;;;17.92;70.26
37610;BME280;23457;51.966;8.230;2022-10-03T13:59:19;101926.97;;;17.90;70.39
37610;BME280;23457;51.966;8.230;2022-10-03T14:10:09;101924.19;;;17.64;72.71
37610;BME280;23457;51.966;8.230;2022-10-03T14:18:47;101928.44;;;17.45;74.24
37610;BME280;23457;51.966;8.230;2022-10-03T14:21:44;101923.16;;;17.48;73.60
37610;BME280;23457;51.966;8.230;2022-10-03T14:24:16;101927.53;;;17.48;72.99
37610;BME280;23457;51.966;8.230;2022-10-03T14:26:58;101923.22;;;17.54;73.88
37610;BME280;23457;51.966;8.230;2022-10-03T14:35:49;101908.34;;;17.57;73.31
37610;BME280;23457;51.966;8.230;2022-10-03T14:38:33;101916.19;;;17.50;73.67
37610;BME280;23457;51.966;8.230;2022-10-03T14:44:11;101909.09;;;17.37;73.46
37610;BME280;23457;51.966;8.230;2022-10-03T14:46:46;101909.16;;;17.43;75.03
37610;BME280;23457;51.966;8.230;2022-10-03T14:49:24;101911.00;;;17.58;71.66
37610;BME280;23457;51.966;8.230;2022-10-03T14:52:42;101905.66;;;17.50;73.35
37610;BME280;23457;51.966;8.230;2022-10-03T14:55:23;101897.75;;;17.44;71.19
37610;BME280;23457;51.966;8.230;2022-10-03T14:58:11;101905.66;;;17.50;73.14
37610;BME280;23457;51.966;8.230;2022-10-03T15:00:45;101896.81;;;17.36;72.29
37610;BME280;23457;51.966;8.230;2022-10-03T15:08:30;101892.44;;;17.38;73.73
37610;BME280;23457;51.966;8.230;2022-10-03T15:10:59;101900.38;;;17.44;73.04
37610;BME280;23457;51.966;8.230;2022-10-03T15:13:27;101899.28;;;17.15;72.76
37610;BME280;23457;51.966;8.230;2022-10-03T15:16:00;101906.31;;;17.17;72.50
37610;BME280;23457;51.966;8.230;2022-10-03T15:18:27;101902.00;;;17.27;74.48
37610;BME280;23457;51.966;8.230;2022-10-03T15:20:56;101897.59;;;17.22;73.03
37610;BME280;23457;51.966;8.230;2022-10-03T15:23:59;101900.28;;;17.31;73.54
37610;BME280;23457;51.966;8.230;2022-10-03T15:26:20;101884.56;;;17.37;74.84
37610;BME280;23457;51.966;8.230;2022-10-03T15:28:51;101888.09;;;17.40;75.52
37610;BME280;23457;51.966;8.230;2022-10-03T15:31:31;101888.09;;;17.42;74.96
37610;BME280;23457;51.966;8.230;2022-10-03T15:33:59;101886.38;;;17.45;76.39
37610;BME280;23457;51.966;8.230;2022-10-03T15:36:31;101875.84;;;17.42;77.39
37610;BME280;23457;51.966;8.230;2022-10-03T15:39:06;101884.63;;;17.44;77.56
37610;BME280;23457;51.966;8.230;2022-10-03T15:42:00;101878.53;;;17.53;76.10
37610;BME280;23457;51.966;8.230;2022-10-03T15:44:34;101867.09;;;17.48;75.43
37610;BME280;23457;51.966;8.230;2022-10-03T15:47:10;101863.59;;;17.43;77.20
37610;BME280;23457;51.966;8.230;2022-10-03T15:49:54;101865.28;;;17.36;77.33
37610;BME280;23457;51.966;8.230;2022-10-03T15:55:12;101857.31;;;17.23;76.92
37610;BME280;23457;51.966;8.230;2022-10-03T15:57:47;101859.09;;;17.28;77.27
37610;BME280;23457;51.966;8.230;2022-10-03T16:00:26;101862.63;;;17.29;77.20
37610;BME280;23457;51.966;8.230;2022-10-03T16:03:03;101847.69;;;17.25;76.78
37610;BME280;23457;51.966;8.230;2022-10-03T16:05:35;101849.44;;;17.23;77.33
37610;BME280;23457;51.966;8.230;2022-10-03T16:08:07;101846.78;;;17.18;77.51
37610;BME280;23457;51.966;8.230;2022-10-03T16:10:41;101844.09;;;17.09;77.60
37610;BME280;23457;51.966;8.230;2022-10-03T16:13:32;101847.56;;;17.05;77.53
37610;BME280;23457;51.966;8.230;2022-10-03T16:16:12;101846.63;;;17.00;77.25
37610;BME280;23457;51.966;8.230;2022-10-03T16:18:45;101843.16;;;17.01;78.24
37610;BME280;23457;51.966;8.230;2022-10-03T16:21:31;101837.09;;;17.08;78.19
37610;BME280;23457;51.966;8.230;2022-10-03T16:24:04;101841.41;;;17.03;78.22
37610;BME280;23457;51.966;8.230;2022-10-03T16:26:39;101836.19;;;17.04;77.89
37610;BME280;23457;51.966;8.230;2022-10-03T16:29:18;101832.69;;;17.05;78.57
37610;BME280;23457;51.966;8.230;2022-10-03T16:31:55;101839.63;;;16.99;79.32
37610;BME280;23457;51.966;8.230;2022-10-03T16:34:24;101840.47;;;16.92;79.23
37610;BME280;23457;51.966;8.230;2022-10-03T16:36:53;101843.94;;;16.91;79.14
37610;BME280;23457;51.966;8.230;2022-10-03T16:39:27;101837.78;;;16.87;79.50
37610;BME280;23457;51.966;8.230;2022-10-03T16:41:55;101835.16;;;16.86;80.14
37610;BME280;23457;51.966;8.230;2022-10-03T16:44:26;101838.59;;;16.78;80.37
37610;BME280;23457;51.966;8.230;2022-10-03T16:46:56;101828.91;;;16.70;80.70
37610;BME280;23457;51.966;8.230;2022-10-03T16:49:34;101835.03;;;16.70;80.66
37610;BME280;23457;51.966;8.230;2022-10-03T16:52:24;101829.72;;;16.63;80.86
37610;BME280;23457;51.966;8.230;2022-10-03T16:55:01;101830.59;;;16.65;80.76
37610;BME280;23457;51.966;8.230;2022-10-03T16:57:34;101834.00;;;16.59;81.09
37610;BME280;23457;51.966;8.230;2022-10-03T17:00:13;101841.78;;;16.47;81.71
37610;BME280;23457;51.966;8.230;2022-10-03T17:02:41;101841.72;;;16.39;82.00
37610;BME280;23457;51.966;8.230;2022-10-03T17:05:11;101838.19;;;16.39;81.95
37610;BME280;23457;51.966;8.230;2022-10-03T17:07:47;101839.91;;;16.35;81.94
37610;BME280;23457;51.966;8.230;2022-10-03T17:10:37;101841.53;;;16.23;82.46
37610;BME280;23457;51.966;8.230;2022-10-03T17:13:14;101836.19;;;16.13;82.65
37610;BME280;23457;51.966;8.230;2022-10-03T17:15:52;101834.44;;;16.12;82.56
37610;BME280;23457;51.966;8.230;2022-10-03T17:18:26;101837.06;;;16.12;82.64
37610;BME280;23457;51.966;8.230;2022-10-03T17:21:01;101834.41;;;16.08;82.76
37610;BME280;23457;51.966;8.230;2022-10-03T17:23:47;101834.34;;;16.03;82.57
37610;BME280;23457;51.966;8.230;2022-10-03T17:26:29;101831.66;;;16.00;82.80
37610;BME280;23457;51.966;8.230;2022-10-03T17:31:43;101825.44;;;15.89;83.23
37610;BME280;23457;51.966;8.230;2022-10-03T17:34:18;101829.72;;;15.84;83.63
37610;BME280;23457;51.966;8.230;2022-10-03T17:37:13;101828.78;;;15.77;83.73
37610;BME280;23457;51.966;8.230;2022-10-03T17:42:46;101820.69;;;15.58;84.29
37610;BME280;23457;51.966;8.230;2022-10-03T17:45:36;101809.16;;;15.48;84.70
37610;BME280;23457;51.966;8.230;2022-10-03T17:48:20;101827.53;;;15.51;84.69
37610;BME280;23457;51.966;8.230;2022-10-03T17:51:17;101813.31;;;15.34;84.86
37610;BME280;23457;51.966;8.230;2022-10-03T17:53:50;101829.97;;;15.37;85.07
37610;BME280;23457;51.966;8.230;2022-10-03T17:56:23;101828.16;;;15.33;85.12
37610;BME280;23457;51.966;8.230;2022-10-03T17:59:11;101816.63;;;15.19;85.65
37610;BME280;23457;51.966;8.230;2022-10-03T18:01:41;101831.44;;;15.17;85.60
37610;BME280;23457;51.966;8.230;2022-10-03T18:04:17;101828.81;;;15.17;85.82
37610;BME280;23457;51.966;8.230;2022-10-03T18:06:52;101833.88;;;15.07;86.43
37610;BME280;23457;51.966;8.230;2022-10-03T18:09:28;101830.19;;;14.95;87.34
37610;BME280;23457;51.966;8.230;2022-10-03T18:12:32;101827.94;;;14.64;89.11
37610;BME280;23457;51.966;8.230;2022-10-03T18:23:10;101809.13;;;14.37;90.99
37610;BME280;23457;51.966;8.230;2022-10-03T18:26:00;101800.47;;;14.39;90.19
37610;BME280;23457;51.966;8.230;2022-10-03T18:29:09;101803.84;;;14.35;90.31
37610;BME280;23457;51.966;8.230;2022-10-03T18:31:42;101821.38;;;14.39;90.47
37610;BME280;23457;51.966;8.230;2022-10-03T18:34:32;101821.31;;;14.36;90.76
37610;BME280;23457;51.966;8.230;2022-10-03T18:37:15;101814.31;;;14.35;90.50
37610;BME280;23457;51.966;8.230;2022-10-03T18:39:43;101815.91;;;14.25;90.74
37610;BME280;23457;51.966;8.230;2022-10-03T18:42:10;101817.63;;;14.25;90.41
37610;BME280;23457;51.966;8.230;2022-10-03T18:44:42;101816.41;;;14.08;91.21
37610;BME280;23457;51.966;8.230;2022-10-03T18:47:25;101822.88;;;13.80;92.51
37610;BME280;23457;51.966;8.230;2022-10-03T18:50:08;101823.47;;;13.68;93.48
37610;BME280;23457;51.966;8.230;2022-10-03T18:52:49;101819.75;;;13.57;93.98
37610;BME280;23457;51.966;8.230;2022-10-03T18:55:20;101818.94;;;13.59;93.92
37610;BME280;23457;51.966;8.230;2022-10-03T18:58:15;101819.91;;;13.63;93.70
37610;BME280;23457;51.966;8.230;2022-10-03T19:01:07;101811.03;;;13.55;93.90
37610;BME280;23457;51.966;8.230;2022-10-03T19:03:45;101811.53;;;13.39;95.11
37610;BME280;23457;51.966;8.230;2022-10-03T19:06:27;101812.38;;;13.38;95.06
37610;BME280;23457;51.966;8.230;2022-10-03T19:08:57;101815.75;;;13.34;95.07
37610;BME280;23457;51.966;8.230;2022-10-03T19:11:34;101813.19;;;13.35;95.42
37610;BME280;23457;51.966;8.230;2022-10-03T19:17:17;101807.28;;;13.44;94.41
37610;BME280;23457;51.966;8.230;2022-10-03T19:19:40;101796.94;;;13.48;93.05
37610;BME280;23457;51.966;8.230;2022-10-03T19:22:15;101794.84;;;13.32;93.40
37610;BME280;23457;51.966;8.230;2022-10-03T19:24:47;101798.22;;;13.26;93.90
37610;BME280;23457;51.966;8.230;2022-10-03T19:27:41;101797.13;;;13.18;94.14
37610;BME280;23457;51.966;8.230;2022-10-03T19:30:24;101800.59;;;13.17;94.20
37610;BME280;23457;51.966;8.230;2022-10-03T19:35:23;101817.34;;;12.89;95.26
37610;BME280;23457;51.966;8.230;2022-10-03T19:38:01;101816.22;;;12.80;95.23
37610;BME280;23457;51.966;8.230;2022-10-03T19:40:32;101822.13;;;12.73;95.87
37610;BME280;23457;51.966;8.230;2022-10-03T19:48:33;101797.97;;;12.45;96.99
37610;BME280;23457;51.966;8.230;2022-10-03T19:51:11;101813.47;;;12.39;97.28
37610;BME280;23457;51.966;8.230;2022-10-03T19:53:49;101816.97;;;12.41;97.58
37610;BME280;23457;51.966;8.230;2022-10-03T19:56:18;101813.75;;;12.50;96.88
37610;BME280;23457;51.966;8.230;2022-10-03T19:59:00;101808.53;;;12.50;96.83
37610;BME280;23457;51.966;8.230;2022-10-03T20:01:46;101814.09;;;12.64;96.10
37610;BME280;23457;51.966;8.230;2022-10-03T20:04:15;101805.34;;;12.62;95.30
37610;BME280;23457;51.966;8.230;2022-10-03T20:06:48;101802.72;;;12.62;95.53
37610;BME280;23457;51.966;8.230;2022-10-03T20:09:24;101804.94;;;12.46;95.58
37610;BME280;23457;51.966;8.230;2022-10-03T20:11:59;101813.41;;;12.38;96.07
37610;BME280;23457;51.966;8.230;2022-10-03T20:14:34;101806.53;;;12.41;96.00
37610;BME280;23457;51.966;8.230;2022-10-03T20:17:13;101808.00;;;12.30;96.10
37610;BME280;23457;51.966;8.230;2022-10-03T20:22:23;101809.63;;;12.25;96.36
37610;BME280;23457;51.966;8.230;2022-10-03T20:24:50;101793.66;;;12.13;96.77
37610;BME280;23457;51.966;8.230;2022-10-03T20:33:04;101804.06;;;12.13;97.88
37610;BME280;23457;51.966;8.230;2022-10-03T20:35:53;101787.13;;;11.97;98.27
37610;BME280;23457;51.966;8.230;2022-10-03T20:41:16;101785.66;;;12.07;97.69
37610;BME280;23457;51.966;8.230;2022-10-03T20:47:08;101796.91;;;12.06;97.40
37610;BME280;23457;51.966;8.230;2022-10-03T20:49:39;101801.47;;;12.13;97.03
37610;BME280;23457;51.966;8.230;2022-10-03T20:52:18;101792.44;;;12.00;97.12
37610;BME280;23457;51.966;8.230;2022-10-03T20:59:53;101812.22;;;11.94;97.12
37610;BME280;23457;51.966;8.230;2022-10-03T21:02:30;101811.03;;;11.82;97.74
37610;BME280;23457;51.966;8.230;2022-10-03T21:05:19;101811.00;;;11.81;98.46
37610;BME280;23457;51.966;8.230;2022-10-03T21:07:55;101808.94;;;11.71;98.91
37610;BME280;23457;51.966;8.230;2022-10-03T21:12:59;101808.16;;;11.73;98.78
37610;BME280;23457;51.966;8.230;2022-10-03T21:15:45;101801.34;;;11.78;98.88
37610;BME280;23457;51.966;8.230;2022-10-03T21:18:37;101801.31;;;11.75;98.77
37610;BME280;23457;51.966;8.230;2022-10-03T21:23:55;101791.69;;;11.74;98.56
37610;BME280;23457;51.966;8.230;2022-10-03T21:26:29;101792.53;;;11.73;99.20
37610;BME280;23457;51.966;8.230;2022-10-03T21:29:20;101782.22;;;11.76;98.87
37610;BME280;23457;51.966;8.230;2022-10-03T21:37:50;101782.91;;;11.71;99.24
37610;BME280;23457;51.966;8.230;2022-10-03T21:40:43;101790.66;;;11.69;99.78
37610;BME280;23457;51.966;8.230;2022-10-03T21:46:16;101794.88;;;11.64;99.99
37610;BME280;23457;51.966;8.230;2022-10-03T21:57:14;101791.16;;;11.28;100.00
37610;BME280;23457;51.966;8.230;2022-10-03T22:07:58;101756.97;;;11.16;100.00
37610;BME280;23457;51.966;8.230;2022-10-03T22:10:33;101767.09;;;11.35;100.00
37610;BME280;23457;51.966;8.230;2022-10-03T22:13:07;101770.63;;;11.37;100.00
37610;BME280;23457;51.966;8.230;2022-10-03T22:16:13;101765.50;;;11.40;100.00
37610;BME280;23457;51.966;8.230;2022-10-03T22:27:08;101758.56;;;11.39;100.00
37610;BME280;23457;51.966;8.230;2022-10-03T22:30:08;101763.75;;;11.39;100.00
37610;BME280;23457;51.966;8.230;2022-10-03T22:32:44;101768.66;;;11.30;100.00
37610;BME280;23457;51.966;8.230;2022-10-03T22:37:55;101769.13;;;11.45;99.91
37610;BME280;23457;51.966;8.230;2022-10-03T22:40:23;101771.31;;;11.31;99.90
37610;BME280;23457;51.966;8.230;2022-10-03T22:42:53;101773.88;;;11.30;100.00
37610;BME280;23457;51.966;8.230;2022-10-03T22:45:27;101761.34;;;11.17;100.00
37610;BME280;23457;51.966;8.230;2022-10-03T22:47:56;101763.66;;;11.07;100.00
37610;BME280;23457;51.966;8.230;2022-10-03T22:50:28;101775.19;;;11.16;100.00
37610;BME280;23457;51.966;8.230;2022-10-03T22:52:58;101757.13;;;11.20;100.00
37610;BME280;23457;51.966;8.230;2022-10-03T22:55:26;101771.69;;;11.13;100.00
37610;BME280;23457;51.966;8.230;2022-10-03T22:57:54;101760.97;;;11.04;100.00
37610;BME280;23457;51.966;8.230;2022-10-03T23:00:27;101750.66;;;11.07;100.00
37610;BME280;23457;51.966;8.230;2022-10-03T23:03:02;101765.38;;;11.07;100.00
37610;BME280;23457;51.966;8.230;2022-10-03T23:06:05;101755.34;;;11.19;100.00
37610;BME280;23457;51.966;8.230;2022-10-03T23:11:22;101746.28;;;11.35;100.00
37610;BME280;23457;51.966;8.230;2022-10-03T23:13:50;101743.88;;;11.12;100.00
37610;BME280;23457;51.966;8.230;2022-10-03T23:21:51;101741.44;;;11.19;100.00
37610;BME280;23457;51.966;8.230;2022-10-03T23:27:08;101734.91;;;11.03;100.00
37610;BME280;23457;51.966;8.230;2022-10-03T23:29:39;101735.25;;;11.13;100.00
37610;BME280;23457;51.966;8.230;2022-10-03T23:32:08;101731.41;;;11.02;100.00
37610;BME280;23457;51.966;8.230;2022-10-03T23:42:43;101720.63;;;11.19;100.00
37610;BME280;23457;51.966;8.230;2022-10-03T23:45:15;101731.50;;;11.34;100.00
37610;BME280;23457;51.966;8.230;2022-10-03T23:47:54;101726.88;;;11.24;100.00
37610;BME280;23457;51.966;8.230;2022-10-03T23:50:24;101721.38;;;11.14;100.00
37610;BME280;23457;51.966;8.230;2022-10-03T23:52:54;101692.13;;;10.93;100.00
37610;BME280;23457;51.966;8.230;2022-10-03T23:55:26;101703.66;;;11.01;100.00
37610;BME280;23457;51.966;8.230;2022-10-03T23:57:55;101701.59;;;10.91;100.00
